createdAt,value
2023-02-09T00:00:57.809Z,8.05
2023-02-09T00:03:47.113Z,9.43
2023-02-09T00:06:29.971Z,10.32
2023-02-09T00:09:18.933Z,6.60
2023-02-09T00:12:25.969Z,10.73
2023-02-09T00:15:08.175Z,6.60
2023-02-09T00:17:56.005Z,7.82
2023-02-09T00:20:38.718Z,7.63
2023-02-09T00:23:27.036Z,7.07
2023-02-09T00:26:09.205Z,6.97
2023-02-09T00:29:00.931Z,6.75
2023-02-09T00:31:43.196Z,5.30
2023-02-09T00:34:31.024Z,7.47
2023-02-09T00:37:20.934Z,7.85
2023-02-09T00:40:02.833Z,7.00
2023-02-09T00:42:51.920Z,7.15
2023-02-09T00:45:35.344Z,5.18
2023-02-09T00:48:24.003Z,5.88
2023-02-09T00:51:07.037Z,8.15
2023-02-09T00:53:55.934Z,7.00
2023-02-09T00:56:37.875Z,6.75
2023-02-09T00:59:27.953Z,7.18
2023-02-09T01:02:12.324Z,6.15
2023-02-09T01:05:01.107Z,7.10
2023-02-09T01:07:49.010Z,8.32
2023-02-09T01:10:31.202Z,6.57
2023-02-09T01:13:19.994Z,7.32
2023-02-09T01:16:02.176Z,5.68
2023-02-09T01:18:51.933Z,5.18
2023-02-09T01:21:34.168Z,5.50
2023-02-09T01:24:22.908Z,7.68
2023-02-09T01:27:05.243Z,5.85
2023-02-09T01:29:53.930Z,5.97
2023-02-09T01:32:42.927Z,6.97
2023-02-09T01:35:26.295Z,5.05
2023-02-09T01:38:15.009Z,7.32
2023-02-09T01:40:56.911Z,7.45
2023-02-09T01:44:08.011Z,6.55
2023-02-09T01:46:49.892Z,6.15
2023-02-09T01:49:41.955Z,7.25
2023-02-09T01:52:29.888Z,7.15
2023-02-09T01:55:21.980Z,6.95
2023-02-09T01:58:14.958Z,5.45
2023-02-09T02:01:00.040Z,6.35
2023-02-09T02:03:48.960Z,8.20
2023-02-09T02:06:31.227Z,6.03
2023-02-09T02:09:24.996Z,7.47
2023-02-09T02:12:07.197Z,8.77
2023-02-09T02:14:56.026Z,7.75
2023-02-09T02:17:57.128Z,8.55
2023-02-09T02:21:29.987Z,8.45
2023-02-09T02:24:45.037Z,9.40
2023-02-09T02:27:48.966Z,7.63
2023-02-09T02:30:51.043Z,6.75
2023-02-09T02:33:43.197Z,7.32
2023-02-09T02:36:39.407Z,9.82
2023-02-09T02:39:30.170Z,8.52
2023-02-09T02:42:40.953Z,7.70
2023-02-09T02:45:31.149Z,6.97
2023-02-09T02:48:32.008Z,8.07
2023-02-09T02:51:19.193Z,9.02
2023-02-09T02:54:13.049Z,8.60
2023-02-09T02:57:05.983Z,9.15
2023-02-09T03:00:03.111Z,9.48
2023-02-09T03:05:36.200Z,8.32
2023-02-09T03:08:25.955Z,10.15
2023-02-09T03:11:09.447Z,9.50
2023-02-09T03:14:19.001Z,9.40
2023-02-09T03:17:14.584Z,9.35
2023-02-09T03:20:08.954Z,7.40
2023-02-09T03:22:57.583Z,9.43
2023-02-09T03:25:51.999Z,7.35
2023-02-09T03:28:43.048Z,11.88
2023-02-09T03:34:13.940Z,9.23
2023-02-09T03:36:59.270Z,9.13
2023-02-09T03:42:31.174Z,11.85
2023-02-09T03:45:19.992Z,10.07
2023-02-09T03:48:02.198Z,9.57
2023-02-09T03:50:50.072Z,8.75
2023-02-09T03:53:32.170Z,9.20
2023-02-09T03:56:20.998Z,9.95
2023-02-09T03:59:04.229Z,9.95
2023-02-09T04:01:47.007Z,9.98
2023-02-09T04:04:35.971Z,10.18
2023-02-09T04:07:18.166Z,12.18
2023-02-09T04:10:06.012Z,9.35
2023-02-09T04:12:49.292Z,9.20
2023-02-09T04:15:39.402Z,10.13
2023-02-09T04:18:21.239Z,10.13
2023-02-09T04:21:10.045Z,9.93
2023-02-09T04:23:52.198Z,9.55
2023-02-09T04:26:40.977Z,11.40
2023-02-09T04:29:30.034Z,8.40
2023-02-09T04:32:13.311Z,11.38
2023-02-09T04:35:02.078Z,9.48
2023-02-09T04:37:44.055Z,8.55
2023-02-09T04:40:33.018Z,10.50
2023-02-09T04:43:15.133Z,11.02
2023-02-09T04:46:04.024Z,11.82
2023-02-09T04:48:47.625Z,8.07
2023-02-09T04:51:36.021Z,10.55
2023-02-09T04:54:17.994Z,10.43
2023-02-09T04:57:20.972Z,8.13
2023-02-09T05:00:09.093Z,8.73
2023-02-09T05:02:51.258Z,11.20
2023-02-09T05:05:41.047Z,12.13
2023-02-09T05:08:23.167Z,16.08
2023-02-09T05:11:10.998Z,13.23
2023-02-09T05:13:53.320Z,13.73
2023-02-09T05:16:41.058Z,11.38
2023-02-09T05:19:23.228Z,11.73
2023-02-09T05:22:13.061Z,10.68
2023-02-09T05:25:02.051Z,11.90
2023-02-09T05:27:57.030Z,10.50
2023-02-09T05:30:46.291Z,19.48
2023-02-09T05:33:28.440Z,10.93
2023-02-09T05:36:19.073Z,9.95
2023-02-09T05:39:02.367Z,21.70
2023-02-09T05:42:08.196Z,18.10
2023-02-09T05:44:50.429Z,9.50
2023-02-09T05:47:39.329Z,11.13
2023-02-09T05:50:28.150Z,9.77
2023-02-09T05:53:15.326Z,10.90
2023-02-09T05:56:05.020Z,10.93
2023-02-09T05:58:47.046Z,10.27
2023-02-09T06:01:36.013Z,12.23
2023-02-09T06:04:18.038Z,11.45
2023-02-09T06:07:07.080Z,11.23
2023-02-09T06:09:49.061Z,8.98
2023-02-09T06:12:41.289Z,9.55
2023-02-09T06:15:23.185Z,9.60
2023-02-09T06:18:12.008Z,11.75
2023-02-09T06:21:01.104Z,11.23
2023-02-09T06:23:43.312Z,14.40
2023-02-09T06:26:32.020Z,14.73
2023-02-09T06:29:16.315Z,11.88
2023-02-09T06:32:04.135Z,11.38
2023-02-09T06:34:46.252Z,10.85
2023-02-09T06:37:35.037Z,12.82
2023-02-09T06:40:18.198Z,13.38
2023-02-09T06:43:06.050Z,31.77
2023-02-09T06:45:57.059Z,17.40
2023-02-09T06:51:30.096Z,10.63
2023-02-09T06:57:00.034Z,9.25
2023-02-09T07:00:03.083Z,14.00
2023-02-09T07:02:53.074Z,10.23
2023-02-09T07:05:35.335Z,10.45
2023-02-09T07:08:23.010Z,11.50
2023-02-09T07:11:12.025Z,12.18
2023-02-09T07:13:53.908Z,10.40
2023-02-09T07:16:43.065Z,10.73
2023-02-09T07:19:26.407Z,9.63
2023-02-09T07:22:15.096Z,9.77
2023-02-09T07:24:57.150Z,9.57
2023-02-09T07:27:46.122Z,10.40
2023-02-09T07:30:28.135Z,12.38
2023-02-09T07:33:17.001Z,13.48
2023-02-09T07:36:07.098Z,13.73
2023-02-09T07:38:49.237Z,12.65
2023-02-09T07:41:37.091Z,9.32
2023-02-09T07:44:19.288Z,16.55
2023-02-09T07:47:07.107Z,42.53
2023-02-09T07:49:49.180Z,40.58
2023-02-09T07:52:39.559Z,18.08
2023-02-09T07:55:21.334Z,15.90
2023-02-09T07:58:09.072Z,19.98
2023-02-09T08:00:51.259Z,14.63
2023-02-09T08:03:42.126Z,11.77
2023-02-09T08:09:26.080Z,9.75
2023-02-09T08:12:19.194Z,11.05
2023-02-09T08:15:01.476Z,13.48
2023-02-09T08:17:51.126Z,10.15
2023-02-09T08:20:33.950Z,15.23
2023-02-09T08:23:27.078Z,14.63
2023-02-09T08:26:27.111Z,13.60
2023-02-09T08:29:17.056Z,14.35
2023-02-09T08:32:07.193Z,13.35
2023-02-09T08:34:49.044Z,15.43
2023-02-09T08:37:38.120Z,11.10
2023-02-09T08:40:20.346Z,10.65
2023-02-09T08:43:10.160Z,14.32
2023-02-09T08:45:52.795Z,10.82
2023-02-09T08:48:41.052Z,12.40
2023-02-09T08:51:23.093Z,10.48
2023-02-09T08:54:12.042Z,12.32
2023-02-09T08:56:54.002Z,11.45
2023-02-09T08:59:44.080Z,14.35
2023-02-09T09:02:33.172Z,14.63
2023-02-09T09:05:15.235Z,11.07
2023-02-09T09:08:03.057Z,10.90
2023-02-09T09:10:45.327Z,12.43
2023-02-09T09:13:34.062Z,12.48
2023-02-09T09:16:22.359Z,11.15
2023-02-09T09:19:12.125Z,12.32
2023-02-09T09:21:54.222Z,13.05
2023-02-09T09:24:47.055Z,12.43
2023-02-09T09:27:43.074Z,14.63
2023-02-09T09:30:25.095Z,9.07
2023-02-09T09:33:16.287Z,11.95
2023-02-09T09:36:00.779Z,13.02
2023-02-09T09:38:50.082Z,13.98
2023-02-09T09:41:36.485Z,10.77
2023-02-09T09:44:30.056Z,15.65
2023-02-09T09:47:20.450Z,12.75
2023-02-09T09:50:10.088Z,15.05
2023-02-09T09:53:10.061Z,14.88
2023-02-09T09:55:56.477Z,13.50
2023-02-09T09:58:47.045Z,11.07
2023-02-09T10:01:32.457Z,11.35
2023-02-09T10:04:28.129Z,11.15
2023-02-09T10:07:19.577Z,12.85
2023-02-09T10:10:13.098Z,14.18
2023-02-09T10:12:56.970Z,13.73
2023-02-09T10:15:48.205Z,13.25
2023-02-09T10:18:33.219Z,16.38
2023-02-09T10:21:25.153Z,14.18
2023-02-09T10:24:23.177Z,14.35
2023-02-09T10:27:28.044Z,13.65
2023-02-09T10:30:28.193Z,17.10
2023-02-09T10:33:10.398Z,13.43
2023-02-09T10:36:01.140Z,14.98
2023-02-09T10:38:49.334Z,13.02
2023-02-09T10:41:41.124Z,16.75
2023-02-09T10:44:29.360Z,17.02
2023-02-09T10:47:19.126Z,15.20
2023-02-09T10:50:03.302Z,13.25
2023-02-09T10:53:02.077Z,13.27
2023-02-09T10:55:53.113Z,15.55
2023-02-09T10:58:39.527Z,15.65
2023-02-09T11:01:34.171Z,17.52
2023-02-09T11:04:21.850Z,16.52
2023-02-09T11:07:13.134Z,14.40
2023-02-09T11:09:56.575Z,14.48
2023-02-09T11:12:45.074Z,12.98
2023-02-09T11:15:41.905Z,15.60
2023-02-09T11:18:39.567Z,15.05
2023-02-09T11:21:38.145Z,20.48
2023-02-09T11:24:28.370Z,18.10
2023-02-09T11:27:30.156Z,18.05
2023-02-09T11:30:24.402Z,16.67
2023-02-09T11:33:22.171Z,18.15
2023-02-09T11:36:20.296Z,18.60
2023-02-09T11:39:12.079Z,18.05
2023-02-09T11:42:18.163Z,17.30
2023-02-09T11:45:10.194Z,15.52
2023-02-09T11:48:08.305Z,16.98
2023-02-09T11:51:09.085Z,17.92
2023-02-09T11:53:56.272Z,19.38
2023-02-09T11:56:48.151Z,20.15
2023-02-09T11:59:36.368Z,20.85
2023-02-09T12:02:38.174Z,22.52
2023-02-09T12:05:31.172Z,19.05
2023-02-09T12:08:43.940Z,24.75
2023-02-09T12:11:45.149Z,16.35
2023-02-09T12:14:48.399Z,29.52
2023-02-09T12:17:42.326Z,19.80
2023-02-09T12:20:30.554Z,18.98
2023-02-09T12:23:30.179Z,19.98
2023-02-09T12:27:01.109Z,19.90
2023-02-09T12:29:51.150Z,17.70
2023-02-09T12:32:49.413Z,23.05
2023-02-09T12:35:48.108Z,20.63
2023-02-09T12:38:30.390Z,21.20
2023-02-09T12:41:19.113Z,17.50
2023-02-09T12:44:33.369Z,17.10
2023-02-09T12:47:51.215Z,22.27
2023-02-09T12:50:49.199Z,24.92
2023-02-09T12:53:42.183Z,21.38
2023-02-09T12:56:48.207Z,26.80
2023-02-09T12:59:30.106Z,21.17
2023-02-09T13:02:28.187Z,21.45
2023-02-09T13:05:22.108Z,20.23
2023-02-09T13:08:13.404Z,23.50
2023-02-09T13:11:07.133Z,20.90
2023-02-09T13:14:02.081Z,22.80
2023-02-09T13:17:07.836Z,24.88
2023-02-09T13:20:42.120Z,21.40
2023-02-09T13:23:42.953Z,22.08
2023-02-09T13:26:36.175Z,25.48
2023-02-09T13:29:26.440Z,18.35
2023-02-09T13:32:27.111Z,22.00
2023-02-09T13:35:20.369Z,23.00
2023-02-09T13:38:12.118Z,22.95
2023-02-09T13:40:55.467Z,21.60
2023-02-09T13:43:47.123Z,21.80
2023-02-09T13:46:32.151Z,24.77
2023-02-09T13:49:26.142Z,30.48
2023-02-09T13:52:20.154Z,29.98
2023-02-09T13:55:03.892Z,26.48
2023-02-09T13:57:53.222Z,23.80
2023-02-09T14:00:37.419Z,25.95
2023-02-09T14:03:29.187Z,28.45
2023-02-09T14:06:19.048Z,24.13
2023-02-09T14:09:10.132Z,24.88
2023-02-09T14:11:57.279Z,28.88
2023-02-09T14:15:07.173Z,28.88
2023-02-09T14:17:58.378Z,29.60
2023-02-09T14:20:49.143Z,32.30
2023-02-09T14:23:35.073Z,27.83
2023-02-09T14:26:33.151Z,30.45
2023-02-09T14:29:33.136Z,26.45
2023-02-09T14:32:33.400Z,26.95
2023-02-09T14:35:33.134Z,28.70
2023-02-09T14:38:42.683Z,26.73
2023-02-09T14:41:43.196Z,26.73
2023-02-09T14:44:26.906Z,27.67
2023-02-09T14:47:16.216Z,24.95
2023-02-09T14:49:58.684Z,29.15
2023-02-09T14:52:47.316Z,28.48
2023-02-09T14:55:37.151Z,29.77
2023-02-09T14:58:27.356Z,26.23
2023-02-09T15:01:17.308Z,26.63
2023-02-09T15:03:59.336Z,28.10
2023-02-09T15:06:50.170Z,26.80
2023-02-09T15:09:41.771Z,29.15
2023-02-09T15:12:35.243Z,26.30
2023-02-09T15:15:22.403Z,25.52
2023-02-09T15:18:12.149Z,28.25
2023-02-09T15:20:54.354Z,24.10
2023-02-09T15:23:43.142Z,27.13
2023-02-09T15:26:34.214Z,21.88
2023-02-09T15:29:31.168Z,23.35
2023-02-09T15:32:23.237Z,26.30
2023-02-09T15:35:06.445Z,22.70
2023-02-09T15:37:57.313Z,27.52
2023-02-09T15:40:59.428Z,26.10
2023-02-09T15:44:20.164Z,29.35
2023-02-09T15:47:26.259Z,28.98
2023-02-09T15:50:10.237Z,25.45
2023-02-09T15:52:59.204Z,26.17
2023-02-09T15:55:43.074Z,28.60
2023-02-09T15:58:36.169Z,30.40
2023-02-09T16:01:19.362Z,25.33
2023-02-09T16:04:15.376Z,24.98
2023-02-09T16:07:01.553Z,23.92
2023-02-09T16:09:50.244Z,25.95
2023-02-09T16:12:45.206Z,23.45
2023-02-09T16:15:28.413Z,24.73
2023-02-09T16:18:17.251Z,25.30
2023-02-09T16:20:59.350Z,23.15
2023-02-09T16:23:50.213Z,26.88
2023-02-09T16:26:33.483Z,27.92
2023-02-09T16:29:26.173Z,28.80
2023-02-09T16:32:15.771Z,24.23
2023-02-09T16:35:16.393Z,27.38
2023-02-09T16:38:06.187Z,23.50
2023-02-09T16:40:50.430Z,23.25
2023-02-09T16:43:38.276Z,21.60
2023-02-09T16:46:21.514Z,27.67
2023-02-09T16:49:10.234Z,24.10
2023-02-09T16:51:52.415Z,79.10
2023-02-09T16:54:49.222Z,28.50
2023-02-09T16:57:34.408Z,24.48
2023-02-09T17:00:24.282Z,20.25
2023-02-09T17:03:15.037Z,24.88
2023-02-09T17:06:05.181Z,22.55
2023-02-09T17:08:55.216Z,24.42
2023-02-09T17:11:37.217Z,21.05
2023-02-09T17:14:27.228Z,24.35
2023-02-09T17:17:11.292Z,25.23
2023-02-09T17:20:01.207Z,27.83
2023-02-09T17:22:43.559Z,22.92
2023-02-09T17:25:33.341Z,29.23
2023-02-09T17:28:29.347Z,31.13
2023-02-09T17:31:25.289Z,27.27
2023-02-09T17:34:15.241Z,24.20
2023-02-09T17:36:57.881Z,24.08
2023-02-09T17:39:46.232Z,27.55
2023-02-09T17:42:28.278Z,24.92
2023-02-09T17:45:17.259Z,32.60
2023-02-09T17:48:02.319Z,23.88
2023-02-09T17:50:52.234Z,28.67
2023-02-09T17:53:35.880Z,27.98
2023-02-09T17:56:25.273Z,26.23
2023-02-09T17:59:08.297Z,27.90
2023-02-09T18:02:01.266Z,26.55
2023-02-09T18:04:51.245Z,28.15
2023-02-09T18:07:33.480Z,29.15
2023-02-09T18:10:22.323Z,22.95
2023-02-09T18:13:04.459Z,30.77
2023-02-09T18:15:54.235Z,26.58
2023-02-09T18:18:36.521Z,26.55
2023-02-09T18:21:26.338Z,30.63
2023-02-09T18:24:09.624Z,25.65
2023-02-09T18:26:58.216Z,27.92
2023-02-09T18:29:49.634Z,26.92
2023-02-09T18:32:32.307Z,33.38
2023-02-09T18:35:27.267Z,31.42
2023-02-09T18:38:11.392Z,28.08
2023-02-09T18:41:00.248Z,27.40
2023-02-09T18:43:44.717Z,28.80
2023-02-09T18:46:33.250Z,27.02
2023-02-09T18:49:17.550Z,28.05
2023-02-09T18:52:09.283Z,26.52
2023-02-09T18:54:52.447Z,26.77
2023-02-09T18:57:40.782Z,29.60
2023-02-09T19:00:31.317Z,28.30
2023-02-09T19:03:17.657Z,25.95
2023-02-09T19:06:06.295Z,27.40
2023-02-09T19:08:50.203Z,29.95
2023-02-09T19:11:41.275Z,30.70
2023-02-09T19:14:40.763Z,34.45
2023-02-09T19:17:31.226Z,31.25
2023-02-09T19:20:17.452Z,28.63
2023-02-09T19:23:06.276Z,32.05
2023-02-09T19:26:01.325Z,32.42
2023-02-09T19:28:58.304Z,34.53
2023-02-09T19:31:47.328Z,31.88
2023-02-09T19:34:29.506Z,31.65
2023-02-09T19:37:20.239Z,32.58
2023-02-09T19:40:07.246Z,32.90
2023-02-09T19:42:56.270Z,35.42
2023-02-09T19:45:41.003Z,33.08
2023-02-09T19:48:28.207Z,31.27
2023-02-09T19:51:17.465Z,35.50
2023-02-09T19:53:59.253Z,32.03
2023-02-09T19:56:49.327Z,34.90
2023-02-09T19:59:31.423Z,30.63
2023-02-09T20:02:22.237Z,33.75
2023-02-09T20:05:04.256Z,32.95
2023-02-09T20:07:55.355Z,31.55
2023-02-09T20:10:40.895Z,32.90
2023-02-09T20:13:29.281Z,32.58
2023-02-09T20:16:12.796Z,29.77
2023-02-09T20:19:02.302Z,35.65
2023-02-09T20:21:51.259Z,29.38
2023-02-09T20:24:38.023Z,37.03
2023-02-09T20:27:26.319Z,27.40
2023-02-09T20:30:15.510Z,29.60
2023-02-09T20:32:57.334Z,33.72
2023-02-09T20:35:44.107Z,32.42
2023-02-09T20:38:33.238Z,33.78
2023-02-09T20:41:19.975Z,31.52
2023-02-09T20:44:25.314Z,34.40
2023-02-09T20:47:07.378Z,31.23
2023-02-09T20:49:56.268Z,32.53
2023-02-09T20:52:47.290Z,32.78
2023-02-09T20:55:29.508Z,31.75
2023-02-09T20:58:20.270Z,30.85
2023-02-09T21:01:05.000Z,33.22
2023-02-09T21:03:53.254Z,29.27
2023-02-09T21:06:37.006Z,32.83
2023-02-09T21:09:32.275Z,33.92
2023-02-09T21:12:14.535Z,36.45
2023-02-09T21:15:03.296Z,38.15
2023-02-09T21:17:48.444Z,32.90
2023-02-09T21:20:38.253Z,32.50
2023-02-09T21:23:27.233Z,31.75
2023-02-09T21:26:13.922Z,30.33
2023-02-09T21:29:02.318Z,35.22
2023-02-09T21:31:44.809Z,29.92
2023-02-09T21:34:33.269Z,31.83
2023-02-09T21:37:15.234Z,32.63
2023-02-09T21:40:08.337Z,30.67
2023-02-09T21:42:51.964Z,32.65
2023-02-09T21:45:40.620Z,32.20
2023-02-09T21:48:28.232Z,30.67
2023-02-09T21:51:10.514Z,34.85
2023-02-09T21:53:59.233Z,34.28
2023-02-09T21:56:41.925Z,30.00
2023-02-09T21:59:31.276Z,32.45
2023-02-09T22:05:03.344Z,32.00
2023-02-09T22:07:49.802Z,30.10
2023-02-09T22:10:37.283Z,31.42
2023-02-09T22:13:26.333Z,31.20
2023-02-09T22:16:11.272Z,28.45
2023-02-09T22:19:00.252Z,31.92
2023-02-09T22:21:42.531Z,33.90
2023-02-09T22:24:32.300Z,33.40
2023-02-09T22:27:14.160Z,36.05
2023-02-09T22:30:03.250Z,31.35
2023-02-09T22:32:46.782Z,31.17
2023-02-09T22:35:35.321Z,33.10
2023-02-09T22:38:17.347Z,32.70
2023-02-09T22:41:06.246Z,34.80
2023-02-09T22:43:55.331Z,38.38
2023-02-09T22:46:41.539Z,35.13
2023-02-09T22:49:31.317Z,34.92
2023-02-09T22:55:01.313Z,32.92
2023-02-09T22:57:43.536Z,30.80
2023-02-09T23:00:33.348Z,35.13
2023-02-09T23:03:15.511Z,40.95
2023-02-09T23:06:05.263Z,32.05
2023-02-09T23:08:55.290Z,36.72
2023-02-09T23:11:37.578Z,32.75
2023-02-09T23:14:26.279Z,34.47
2023-02-09T23:17:08.303Z,34.08
2023-02-09T23:19:57.330Z,33.50
2023-02-09T23:22:40.918Z,35.58
2023-02-09T23:25:31.334Z,38.83
2023-02-09T23:28:27.330Z,35.88
2023-02-09T23:31:19.288Z,38.95
2023-02-09T23:34:01.510Z,39.05
2023-02-09T23:36:50.340Z,43.00
2023-02-09T23:39:40.766Z,37.63
2023-02-09T23:42:22.296Z,35.58
2023-02-09T23:45:11.354Z,38.28
2023-02-09T23:47:53.235Z,34.33
2023-02-09T23:50:42.266Z,37.83
2023-02-09T23:53:24.285Z,38.03
2023-02-09T23:56:14.291Z,40.35
2023-02-09T23:58:56.543Z,35.33
